createdAt,value
2022-12-16T00:01:42.142Z,-8.48
2022-12-16T00:04:10.083Z,-8.45
2022-12-16T00:06:37.934Z,-8.78
2022-12-16T00:09:05.804Z,-8.57
2022-12-16T00:11:34.080Z,-8.57
2022-12-16T00:14:01.981Z,-8.68
2022-12-16T00:16:31.367Z,-8.65
2022-12-16T00:19:01.166Z,-8.72
2022-12-16T00:21:29.805Z,-8.63
2022-12-16T00:23:58.145Z,-8.96
2022-12-16T00:26:26.509Z,-9.08
2022-12-16T00:28:54.764Z,-9.04
2022-12-16T00:31:22.831Z,-8.69
2022-12-16T00:33:53.063Z,-8.70
2022-12-16T00:36:20.925Z,-8.96
2022-12-16T00:38:49.001Z,-8.97
2022-12-16T00:41:16.938Z,-8.81
2022-12-16T00:43:44.872Z,-9.64
2022-12-16T00:46:12.752Z,-8.82
2022-12-16T00:48:40.813Z,-9.23
2022-12-16T00:51:10.526Z,-8.77
2022-12-16T00:53:38.476Z,-9.01
2022-12-16T00:56:09.034Z,-8.82
2022-12-16T00:58:37.456Z,-8.68
2022-12-16T01:01:06.163Z,-9.32
2022-12-16T01:03:34.945Z,-9.66
2022-12-16T01:06:03.466Z,-8.85
2022-12-16T01:08:32.722Z,-8.79
2022-12-16T01:11:00.734Z,-8.84
2022-12-16T01:13:28.580Z,-8.87
2022-12-16T01:15:56.616Z,-8.95
2022-12-16T01:18:24.500Z,-9.32
2022-12-16T01:20:52.661Z,-9.04
2022-12-16T01:23:22.849Z,-9.25
2022-12-16T01:25:57.811Z,-9.16
2022-12-16T01:28:25.793Z,-9.21
2022-12-16T01:30:57.174Z,-9.15
2022-12-16T01:33:25.550Z,-9.21
2022-12-16T01:36:00.026Z,-9.18
2022-12-16T01:38:28.032Z,-9.08
2022-12-16T01:40:57.712Z,-9.04
2022-12-16T01:43:29.391Z,-9.03
2022-12-16T01:46:01.546Z,-9.02
2022-12-16T01:48:40.171Z,-9.35
2022-12-16T01:51:12.283Z,-8.99
2022-12-16T01:53:42.886Z,-8.97
2022-12-16T01:56:16.329Z,-9.17
2022-12-16T01:58:46.339Z,-9.40
2022-12-16T02:01:15.889Z,-9.19
2022-12-16T02:03:44.532Z,-9.47
2022-12-16T02:06:12.451Z,-9.14
2022-12-16T02:08:40.357Z,-9.26
2022-12-16T02:11:36.286Z,-9.15
2022-12-16T02:14:28.726Z,-9.12
2022-12-16T02:17:01.809Z,-8.98
2022-12-16T02:19:58.018Z,-9.14
2022-12-16T02:22:36.027Z,-9.00
2022-12-16T02:25:45.386Z,-9.16
2022-12-16T02:28:33.625Z,-9.27
2022-12-16T02:31:20.920Z,-9.21
2022-12-16T02:33:58.220Z,-9.26
2022-12-16T02:36:43.370Z,-9.36
2022-12-16T02:39:15.454Z,-9.63
2022-12-16T02:41:48.625Z,-9.47
2022-12-16T02:44:18.053Z,-9.91
2022-12-16T02:46:54.002Z,-9.33
2022-12-16T02:49:55.060Z,-9.30
2022-12-16T02:52:25.774Z,-9.37
2022-12-16T02:54:57.249Z,-9.23
2022-12-16T02:57:51.613Z,-9.17
2022-12-16T03:00:22.108Z,-9.20
2022-12-16T03:02:58.247Z,-9.51
2022-12-16T03:05:31.288Z,-9.40
2022-12-16T03:08:03.716Z,-9.29
2022-12-16T03:10:37.769Z,-9.64
2022-12-16T03:13:08.517Z,-9.83
2022-12-16T03:15:37.445Z,-9.12
2022-12-16T03:18:10.319Z,-9.11
2022-12-16T03:20:42.567Z,-9.15
2022-12-16T03:23:23.079Z,-9.59
2022-12-16T03:25:56.015Z,-9.29
2022-12-16T03:28:34.387Z,-9.28
2022-12-16T03:31:10.221Z,-9.38
2022-12-16T03:33:43.833Z,-9.30
2022-12-16T03:36:15.794Z,-9.44
2022-12-16T03:38:48.264Z,-9.55
2022-12-16T03:41:18.511Z,-9.52
2022-12-16T03:43:48.497Z,-9.66
2022-12-16T03:46:18.263Z,-9.67
2022-12-16T03:48:48.069Z,-9.63
2022-12-16T03:51:16.012Z,-10.63
2022-12-16T03:53:43.988Z,-9.57
2022-12-16T03:56:12.805Z,-9.57
2022-12-16T03:58:41.179Z,-9.61
2022-12-16T04:01:10.528Z,-10.32
2022-12-16T04:03:39.052Z,-9.92
2022-12-16T04:06:09.165Z,-9.70
2022-12-16T04:08:37.101Z,-9.98
2022-12-16T04:11:22.624Z,-9.87
2022-12-16T04:14:07.854Z,-9.90
2022-12-16T04:16:53.882Z,-9.85
2022-12-16T04:19:43.547Z,-9.94
2022-12-16T04:22:34.163Z,-9.85
2022-12-16T04:25:05.666Z,-9.70
2022-12-16T04:27:33.728Z,-10.23
2022-12-16T04:30:18.918Z,-9.72
2022-12-16T04:33:04.796Z,-9.63
2022-12-16T04:35:50.219Z,-9.60
2022-12-16T04:38:37.172Z,-9.59
2022-12-16T04:41:23.002Z,-9.49
2022-12-16T04:44:08.512Z,-9.56
2022-12-16T04:46:54.075Z,-9.47
2022-12-16T04:49:43.024Z,-9.51
2022-12-16T04:52:28.667Z,-9.57
2022-12-16T04:55:16.227Z,-9.76
2022-12-16T04:58:03.455Z,-9.90
2022-12-16T05:00:48.724Z,-9.83
2022-12-16T05:03:34.438Z,-9.73
2022-12-16T05:06:20.205Z,-10.39
2022-12-16T05:09:05.376Z,-9.63
2022-12-16T05:11:52.127Z,-9.82
2022-12-16T05:14:38.288Z,-9.65
2022-12-16T05:17:22.866Z,-9.65
2022-12-16T05:20:09.010Z,-10.86
2022-12-16T05:22:54.151Z,-9.62
2022-12-16T05:25:40.226Z,-9.72
2022-12-16T05:28:27.131Z,-9.58
2022-12-16T05:31:12.792Z,-9.56
2022-12-16T05:33:58.014Z,-9.66
2022-12-16T05:36:43.280Z,-9.59
2022-12-16T05:39:28.594Z,-9.79
2022-12-16T05:42:14.269Z,-9.53
2022-12-16T05:45:01.121Z,-9.87
2022-12-16T05:47:46.739Z,-10.52
2022-12-16T05:50:32.260Z,-9.98
2022-12-16T05:53:28.134Z,-10.31
2022-12-16T05:56:14.150Z,-9.83
2022-12-16T05:58:59.446Z,-9.83
2022-12-16T06:01:46.115Z,-9.80
2022-12-16T06:04:31.582Z,-9.77
2022-12-16T06:07:17.069Z,-10.15
2022-12-16T06:10:04.127Z,-10.02
2022-12-16T06:12:49.797Z,-10.04
2022-12-16T06:15:37.714Z,-9.87
2022-12-16T06:18:21.087Z,-9.91
2022-12-16T06:21:06.508Z,-9.94
2022-12-16T06:23:51.794Z,-10.07
2022-12-16T06:26:37.476Z,-10.07
2022-12-16T06:29:22.783Z,-10.55
2022-12-16T06:32:08.012Z,-9.99
2022-12-16T06:34:55.127Z,-10.05
2022-12-16T06:37:40.459Z,-10.05
2022-12-16T06:40:27.430Z,-10.72
2022-12-16T06:43:12.932Z,-10.50
2022-12-16T06:45:58.715Z,-9.93
2022-12-16T06:48:44.404Z,-9.89
2022-12-16T06:51:31.356Z,-9.88
2022-12-16T06:54:17.174Z,-9.86
2022-12-16T06:57:02.400Z,-10.03
2022-12-16T06:59:48.030Z,-10.30
2022-12-16T07:02:33.320Z,-10.22
2022-12-16T07:05:19.017Z,-10.09
2022-12-16T07:08:09.657Z,-9.99
2022-12-16T07:11:01.213Z,-9.94
2022-12-16T07:13:54.465Z,-10.13
2022-12-16T07:16:36.331Z,-10.34
2022-12-16T07:19:21.803Z,-10.70
2022-12-16T07:22:07.147Z,-10.49
2022-12-16T07:24:55.402Z,-9.97
2022-12-16T07:27:40.995Z,-9.95
2022-12-16T07:30:30.364Z,-9.90
2022-12-16T07:33:16.299Z,-9.74
2022-12-16T07:36:01.986Z,-9.74
2022-12-16T07:38:47.693Z,-9.68
2022-12-16T07:41:34.577Z,-9.75
2022-12-16T07:44:23.329Z,-9.70
2022-12-16T07:47:08.517Z,-9.89
2022-12-16T07:49:55.394Z,-9.99
2022-12-16T07:52:41.704Z,-9.89
2022-12-16T07:55:27.859Z,-9.80
2022-12-16T07:58:14.651Z,-10.05
2022-12-16T08:01:02.747Z,-9.72
2022-12-16T08:03:51.972Z,-9.63
2022-12-16T08:06:40.420Z,-9.74
2022-12-16T08:09:26.181Z,-9.69
2022-12-16T08:12:11.357Z,-9.57
2022-12-16T08:14:58.101Z,-9.69
2022-12-16T08:17:43.514Z,-9.49
2022-12-16T08:20:29.066Z,-9.48
2022-12-16T08:23:14.457Z,-9.25
2022-12-16T08:26:03.411Z,-8.98
2022-12-16T08:28:48.573Z,-9.35
2022-12-16T08:31:35.448Z,-8.71
2022-12-16T08:34:20.715Z,-8.61
2022-12-16T08:37:06.319Z,-8.65
2022-12-16T08:40:11.056Z,-8.69
2022-12-16T08:42:57.676Z,-9.61
2022-12-16T08:45:43.085Z,-8.71
2022-12-16T08:48:30.250Z,-8.31
2022-12-16T08:51:16.943Z,-8.31
2022-12-16T08:54:02.203Z,-8.34
2022-12-16T08:56:47.718Z,-8.44
2022-12-16T08:59:33.428Z,-8.52
2022-12-16T09:02:19.402Z,-8.20
2022-12-16T09:05:06.743Z,-8.10
2022-12-16T09:07:52.788Z,-8.26
2022-12-16T09:10:40.827Z,-8.10
2022-12-16T09:13:27.894Z,-8.05
2022-12-16T09:16:11.950Z,-7.88
2022-12-16T09:19:01.120Z,-7.79
2022-12-16T09:21:44.391Z,-7.73
2022-12-16T09:24:29.836Z,-7.74
2022-12-16T09:27:15.609Z,-7.53
2022-12-16T09:30:12.440Z,-7.20
2022-12-16T09:33:05.936Z,-7.50
2022-12-16T09:35:51.523Z,-7.69
2022-12-16T09:38:38.495Z,-7.31
2022-12-16T09:41:44.759Z,-7.25
2022-12-16T09:44:39.431Z,-6.88
2022-12-16T09:47:35.380Z,-6.93
2022-12-16T09:50:21.193Z,-6.62
2022-12-16T09:53:11.332Z,-6.30
2022-12-16T09:55:59.915Z,-6.36
2022-12-16T09:58:48.546Z,-6.90
2022-12-16T10:01:34.822Z,-6.55
2022-12-16T10:04:21.435Z,-6.73
2022-12-16T10:07:10.416Z,-6.43
2022-12-16T10:10:04.876Z,-6.09
2022-12-16T10:13:02.015Z,-5.93
2022-12-16T10:15:55.000Z,-5.75
2022-12-16T10:19:00.578Z,-5.64
2022-12-16T10:21:51.827Z,-5.52
2022-12-16T10:24:49.257Z,-5.34
2022-12-16T10:27:35.483Z,-5.37
2022-12-16T10:30:30.633Z,-5.12
2022-12-16T10:33:16.797Z,-5.06
2022-12-16T10:36:06.419Z,-5.10
2022-12-16T10:39:11.631Z,-4.98
2022-12-16T10:42:01.850Z,-5.15
2022-12-16T10:44:54.453Z,-5.20
2022-12-16T10:47:43.421Z,-4.90
2022-12-16T10:50:33.028Z,-4.78
2022-12-16T10:53:21.978Z,-4.68
2022-12-16T10:56:23.147Z,-4.62
2022-12-16T10:59:12.278Z,-4.75
2022-12-16T11:01:58.689Z,-4.67
2022-12-16T11:04:55.532Z,-4.57
2022-12-16T11:08:10.920Z,-4.50
2022-12-16T11:10:58.948Z,-4.40
2022-12-16T11:13:46.850Z,-4.49
2022-12-16T11:16:38.090Z,-4.25
2022-12-16T11:19:38.299Z,-4.21
2022-12-16T11:22:32.972Z,-4.12
2022-12-16T11:25:32.011Z,-4.17
2022-12-16T11:28:30.082Z,-4.12
2022-12-16T11:31:19.389Z,-3.91
2022-12-16T11:34:05.231Z,-3.81
2022-12-16T11:37:03.855Z,-3.74
2022-12-16T11:39:55.200Z,-3.63
2022-12-16T11:42:45.241Z,-3.62
2022-12-16T11:45:34.171Z,-3.53
2022-12-16T11:48:30.130Z,-3.53
2022-12-16T11:51:16.898Z,-3.31
2022-12-16T11:54:06.633Z,-3.21
2022-12-16T11:56:56.884Z,-3.10
2022-12-16T11:59:48.749Z,-3.05
2022-12-16T12:02:39.503Z,-3.14
2022-12-16T12:05:25.500Z,-3.10
2022-12-16T12:08:16.868Z,-3.11
2022-12-16T12:11:15.851Z,-3.09
2022-12-16T12:14:23.520Z,-2.98
2022-12-16T12:17:21.107Z,-2.90
2022-12-16T12:20:19.614Z,-2.90
2022-12-16T12:23:05.936Z,-2.98
2022-12-16T12:26:04.674Z,-2.85
2022-12-16T12:29:02.756Z,-2.98
2022-12-16T12:31:58.230Z,-3.58
2022-12-16T12:34:51.028Z,-3.04
2022-12-16T12:37:43.447Z,-3.05
2022-12-16T12:40:40.507Z,-2.89
2022-12-16T12:43:36.431Z,-2.95
2022-12-16T12:46:30.184Z,-2.92
2022-12-16T12:49:25.961Z,-2.98
2022-12-16T12:52:24.752Z,-3.01
2022-12-16T12:55:18.333Z,-2.96
2022-12-16T12:58:06.513Z,-3.31
2022-12-16T13:00:58.365Z,-3.06
2022-12-16T13:04:09.086Z,-4.22
2022-12-16T13:06:57.070Z,-2.88
2022-12-16T13:09:46.651Z,-3.00
2022-12-16T13:12:47.594Z,-2.98
2022-12-16T13:15:39.969Z,-2.78
2022-12-16T13:18:46.910Z,-2.70
2022-12-16T13:22:04.856Z,-2.60
2022-12-16T13:25:02.884Z,-2.67
2022-12-16T13:28:04.164Z,-3.15
2022-12-16T13:30:52.461Z,-2.81
2022-12-16T13:33:49.111Z,-3.02
2022-12-16T13:36:36.438Z,-2.81
2022-12-16T13:39:41.173Z,-2.84
2022-12-16T13:43:06.387Z,-2.88
2022-12-16T13:45:55.014Z,-2.88
2022-12-16T13:48:56.229Z,-2.92
2022-12-16T13:52:24.471Z,-2.88
2022-12-16T13:55:30.616Z,-2.97
2022-12-16T13:58:24.385Z,-2.96
2022-12-16T14:01:25.169Z,-4.35
2022-12-16T14:04:22.967Z,-3.19
2022-12-16T14:07:09.513Z,-3.02
2022-12-16T14:10:00.934Z,-3.44
2022-12-16T14:13:14.504Z,-3.08
2022-12-16T14:16:16.614Z,-3.25
2022-12-16T14:19:15.135Z,-3.04
2022-12-16T14:22:08.106Z,-3.14
2022-12-16T14:24:57.042Z,-3.13
2022-12-16T14:27:44.193Z,-3.35
2022-12-16T14:30:37.635Z,-3.33
2022-12-16T14:33:43.098Z,-3.39
2022-12-16T14:36:40.455Z,-3.54
2022-12-16T14:39:30.981Z,-4.41
2022-12-16T14:42:20.062Z,-3.61
2022-12-16T14:45:06.263Z,-3.55
2022-12-16T14:47:53.068Z,-3.66
2022-12-16T14:50:41.096Z,-3.65
2022-12-16T14:53:37.561Z,-3.72
2022-12-16T14:56:37.595Z,-3.83
2022-12-16T14:59:32.765Z,-3.82
2022-12-16T15:02:32.051Z,-3.76
2022-12-16T15:05:19.830Z,-3.86
2022-12-16T15:08:05.426Z,-3.94
2022-12-16T15:10:52.277Z,-4.21
2022-12-16T15:13:41.032Z,-4.04
2022-12-16T15:16:36.627Z,-4.08
2022-12-16T15:19:24.741Z,-4.15
2022-12-16T15:22:12.007Z,-4.22
2022-12-16T15:24:57.861Z,-4.30
2022-12-16T15:27:45.634Z,-4.42
2022-12-16T15:30:58.324Z,-4.49
2022-12-16T15:33:46.294Z,-4.63
2022-12-16T15:36:47.000Z,-4.71
2022-12-16T15:39:40.419Z,-4.77
2022-12-16T15:42:38.881Z,-4.85
2022-12-16T15:45:35.660Z,-4.92
2022-12-16T15:48:30.605Z,-5.08
2022-12-16T15:51:16.315Z,-5.21
2022-12-16T15:54:01.512Z,-4.98
2022-12-16T15:57:05.792Z,-5.02
2022-12-16T15:59:54.114Z,-5.10
2022-12-16T16:02:42.159Z,-5.07
2022-12-16T16:05:33.659Z,-5.01
2022-12-16T16:08:19.748Z,-5.30
2022-12-16T16:11:05.236Z,-4.98
2022-12-16T16:13:52.034Z,-4.92
2022-12-16T16:16:38.119Z,-4.99
2022-12-16T16:19:30.544Z,-5.86
2022-12-16T16:22:15.844Z,-5.06
2022-12-16T16:24:57.636Z,-5.10
2022-12-16T16:27:45.936Z,-5.16
2022-12-16T16:30:33.133Z,-5.15
2022-12-16T16:33:18.585Z,-5.46
2022-12-16T16:36:04.397Z,-5.63
2022-12-16T16:38:50.107Z,-5.73
2022-12-16T16:41:35.792Z,-5.87
2022-12-16T16:44:21.077Z,-5.66
2022-12-16T16:47:07.829Z,-5.76
2022-12-16T16:49:56.529Z,-5.74
2022-12-16T16:52:43.986Z,-5.82
2022-12-16T16:55:34.185Z,-5.92
2022-12-16T16:58:20.018Z,-6.02
2022-12-16T17:01:05.660Z,-6.33
2022-12-16T17:04:03.828Z,-6.03
2022-12-16T17:06:49.547Z,-6.01
2022-12-16T17:09:35.025Z,-6.07
2022-12-16T17:12:20.550Z,-6.07
2022-12-16T17:15:05.655Z,-6.39
2022-12-16T17:17:51.481Z,-6.15
2022-12-16T17:20:38.342Z,-6.54
2022-12-16T17:23:23.484Z,-6.20
2022-12-16T17:26:08.789Z,-6.29
2022-12-16T17:28:53.995Z,-6.36
2022-12-16T17:31:39.723Z,-7.87
2022-12-16T17:34:25.083Z,-6.36
2022-12-16T17:37:20.183Z,-6.63
2022-12-16T17:40:05.414Z,-6.66
2022-12-16T17:42:50.599Z,-6.44
2022-12-16T17:45:35.999Z,-6.46
2022-12-16T17:48:21.296Z,-6.73
2022-12-16T17:51:03.149Z,-6.52
2022-12-16T17:53:52.523Z,-6.79
2022-12-16T17:56:41.164Z,-6.66
2022-12-16T17:59:27.555Z,-6.67
2022-12-16T18:02:13.365Z,-6.70
2022-12-16T18:04:58.967Z,-6.84
2022-12-16T18:07:44.573Z,-6.97
2022-12-16T18:10:31.361Z,-6.75
2022-12-16T18:13:16.710Z,-6.80
2022-12-16T18:16:01.973Z,-6.76
2022-12-16T18:18:47.193Z,-6.90
2022-12-16T18:21:32.975Z,-6.81
2022-12-16T18:24:18.130Z,-6.87
2022-12-16T18:27:04.770Z,-6.90
2022-12-16T18:29:49.954Z,-6.95
2022-12-16T18:32:35.606Z,-6.96
2022-12-16T18:35:21.039Z,-7.04
2022-12-16T18:38:06.184Z,-6.89
2022-12-16T18:40:54.043Z,-7.01
2022-12-16T18:43:40.909Z,-7.05
2022-12-16T18:46:26.160Z,-7.18
2022-12-16T18:49:11.840Z,-7.13
2022-12-16T18:51:57.167Z,-7.19
2022-12-16T18:54:42.472Z,-7.17
2022-12-16T18:57:27.601Z,-7.16
2022-12-16T19:00:14.524Z,-7.15
2022-12-16T19:03:00.063Z,-7.19
2022-12-16T19:05:45.721Z,-7.82
2022-12-16T19:08:31.256Z,-7.29
2022-12-16T19:11:17.554Z,-7.18
2022-12-16T19:14:02.644Z,-7.30
2022-12-16T19:16:49.384Z,-7.17
2022-12-16T19:19:34.599Z,-7.31
2022-12-16T19:22:19.819Z,-7.26
2022-12-16T19:25:05.103Z,-7.29
2022-12-16T19:27:50.734Z,-7.26
2022-12-16T19:30:47.640Z,-8.50
2022-12-16T19:33:34.539Z,-7.38
2022-12-16T19:36:19.826Z,-7.42
2022-12-16T19:39:05.152Z,-7.46
2022-12-16T19:41:50.605Z,-7.47
2022-12-16T19:44:37.985Z,-7.51
2022-12-16T19:47:23.529Z,-7.73
2022-12-16T19:50:10.535Z,-7.51
2022-12-16T19:52:52.427Z,-7.54
2022-12-16T19:55:54.285Z,-7.50
2022-12-16T19:58:41.799Z,-7.56
2022-12-16T20:04:34.686Z,-7.66
2022-12-16T20:10:27.095Z,-7.59
2022-12-16T20:13:14.592Z,-7.65
2022-12-16T20:16:02.418Z,-7.72
2022-12-16T20:18:48.035Z,-7.75
2022-12-16T20:21:33.413Z,-7.78
2022-12-16T20:24:34.837Z,-7.84
2022-12-16T20:27:20.432Z,-7.93
2022-12-16T20:30:05.607Z,-7.83
2022-12-16T20:32:51.297Z,-7.94
2022-12-16T20:35:37.030Z,-8.89
2022-12-16T20:38:22.244Z,-7.97
2022-12-16T20:41:15.503Z,-7.93
2022-12-16T20:44:00.769Z,-7.93
2022-12-16T20:46:47.833Z,-7.84
2022-12-16T20:49:34.079Z,-7.79
2022-12-16T20:52:19.670Z,-7.69
2022-12-16T20:55:04.869Z,-7.93
2022-12-16T20:57:51.732Z,-7.68
2022-12-16T21:00:37.293Z,-8.32
2022-12-16T21:03:25.816Z,-7.61
2022-12-16T21:06:11.632Z,-7.83
2022-12-16T21:08:56.722Z,-7.59
2022-12-16T21:11:42.364Z,-7.47
2022-12-16T21:14:29.238Z,-7.38
2022-12-16T21:17:19.942Z,-7.37
2022-12-16T21:20:05.456Z,-7.31
2022-12-16T21:22:50.689Z,-7.29
2022-12-16T21:25:38.546Z,-7.39
2022-12-16T21:28:23.777Z,-7.16
2022-12-16T21:31:10.373Z,-7.16
2022-12-16T21:33:55.540Z,-7.20
2022-12-16T21:36:40.962Z,-7.30
2022-12-16T21:39:26.225Z,-7.16
2022-12-16T21:42:11.842Z,-7.20
2022-12-16T21:44:57.183Z,-7.39
2022-12-16T21:47:43.995Z,-7.15
2022-12-16T21:50:29.188Z,-6.98
2022-12-16T21:53:14.361Z,-6.80
2022-12-16T21:55:59.514Z,-6.76
2022-12-16T21:58:44.919Z,-6.73
2022-12-16T22:01:32.374Z,-6.60
2022-12-16T22:04:18.975Z,-6.58
2022-12-16T22:07:04.546Z,-6.51
2022-12-16T22:09:49.910Z,-6.61
2022-12-16T22:12:35.184Z,-6.59
2022-12-16T22:15:25.735Z,-6.62
2022-12-16T22:18:11.077Z,-6.50
2022-12-16T22:20:57.634Z,-6.52
2022-12-16T22:23:47.073Z,-6.46
2022-12-16T22:26:32.529Z,-6.79
2022-12-16T22:29:18.498Z,-6.38
2022-12-16T22:32:03.860Z,-6.35
2022-12-16T22:34:49.036Z,-6.52
2022-12-16T22:36:20.555Z,-7.74
2022-12-16T22:37:34.821Z,-6.36
2022-12-16T22:40:20.321Z,-6.42
2022-12-16T22:43:06.760Z,-6.42
2022-12-16T22:45:52.288Z,-6.42
2022-12-16T22:48:37.569Z,-6.54
2022-12-16T22:51:27.862Z,-6.51
2022-12-16T22:54:14.629Z,-6.57
2022-12-16T22:56:59.743Z,-6.62
2022-12-16T22:59:45.242Z,-6.95
2022-12-16T23:02:30.682Z,-6.83
2022-12-16T23:05:16.392Z,-6.51
2022-12-16T23:08:01.833Z,-6.54
2022-12-16T23:10:48.403Z,-6.49
2022-12-16T23:13:34.029Z,-6.57
2022-12-16T23:16:27.637Z,-6.59
2022-12-16T23:19:18.690Z,-6.49
2022-12-16T23:22:09.972Z,-6.39
2022-12-16T23:25:05.802Z,-6.35
2022-12-16T23:27:55.202Z,-6.33
2022-12-16T23:30:46.156Z,-6.34
2022-12-16T23:33:37.724Z,-6.37
2022-12-16T23:36:39.312Z,-6.42
2022-12-16T23:39:36.061Z,-6.47
2022-12-16T23:42:42.342Z,-6.54
2022-12-16T23:45:32.301Z,-6.54
2022-12-16T23:48:18.983Z,-6.66
2022-12-16T23:51:08.892Z,-6.72
2022-12-16T23:54:05.453Z,-6.91
2022-12-16T23:56:56.382Z,-6.65
2022-12-16T23:59:53.291Z,-6.70
